Capitol Logistics 224


KLAX
Los Angeles International Airport
Los Angeles, California, US
PANC
Ted Stevens Anchorage International Airport
Anchorage, Alaska, US

Route Details

Aircraft Information
Primary: Boeing 767-300BDSF
Backup: Not Available
Route Data
Distance: 2089nm
Sched. Duration: 4h 40m
Avg. Duration: 5h 09m (+69m)
Times Flown: 14
Recm'd Route: SUMMR1 SCTRR PYE J143 ENI FOT BOXER B453 MDO WITTI4
Planned Altitude: 34,000ft
Origin Wx: KLAX 272353Z 25008KT 10SM OVC200 24/00 A3011 RMK AO2 SLP194 T02440000 10294 20244 55008
Dest. Wx: PANC 272353Z 00000KT 10SM CLR M04/M13 A2959 RMK AO2 SLP023 4/019 T10441128 11039 21128 51006
Notes:

Financial History
Total Freight: 1,657,957lbs
Average Load: 118,426lbs/flt
Fuel Used: 808,720lbs
Avg. Fuel Used: 57,766lbs/flt
Fuel Expense: $964,229
Avg. Fuel Expense: $68,873
Avg. Fuel Cost: $1.19/lbs
Total Gross Income: $2,204,547
Pilot Pay: $2,646
Total Expenses: $234,110
Total Revenue: $989,576
Average Revenue: $157,467.61